Beauval, Canada
Current Conditions -  °F | °C
As of 7:00 PM on Wednesday 17 Dec 2014 (Local Time) from CYVT Reporting Station
Light Snow Light Snow  
Wind Chill: -13°   Ceiling: 1000
Heat Index: -8°   Visibility: 15mi
Dew Point: -10°   Wind: 7mph
Humidity: 86%   Direction: 190°S
Pressure: 29.93"   Gusts: NA
Location:  55.15°N, 107.62°W
Report Text: CYVT 180100Z 19006KT 15SM -SN OVC010 M08/M10 A2993 RMK ST8 SLP170
Loading
Personal Weather Stations






























Interactive Weather Map New forecast layout! Learn more

10-Day Weather Forecast

Advertisements
Track Severe Weather on mobile